createdAt,value
2018-03-23T00:00:13.334Z,18.45
2018-03-23T00:02:39.494Z,17.90
2018-03-23T00:05:06.434Z,17.23
2018-03-23T00:07:32.625Z,19.30
2018-03-23T00:09:58.829Z,17.55
2018-03-23T00:12:25.062Z,18.55
2018-03-23T00:14:51.244Z,17.17
2018-03-23T00:17:18.198Z,15.75
2018-03-23T00:19:45.130Z,15.82
2018-03-23T00:22:11.337Z,18.33
2018-03-23T00:24:37.547Z,16.67
2018-03-23T00:27:03.755Z,16.45
2018-03-23T00:29:29.922Z,17.80
2018-03-23T00:31:56.099Z,17.30
2018-03-23T00:34:22.352Z,17.60
2018-03-23T00:36:48.521Z,18.05
2018-03-23T00:39:15.456Z,17.00
2018-03-23T00:41:41.669Z,16.73
2018-03-23T00:44:07.845Z,16.83
2018-03-23T00:46:34.069Z,16.83
2018-03-23T00:49:00.305Z,15.90
2018-03-23T00:51:26.538Z,15.00
2018-03-23T00:53:52.718Z,14.32
2018-03-23T00:56:18.900Z,16.58
2018-03-23T00:58:45.101Z,14.98
2018-03-23T01:01:11.332Z,15.05
2018-03-23T01:03:37.557Z,14.82
2018-03-23T01:06:03.791Z,14.93
2018-03-23T01:08:30.024Z,13.20
2018-03-23T01:10:56.249Z,13.57
2018-03-23T01:13:22.454Z,14.15
2018-03-23T01:15:49.368Z,14.10
2018-03-23T01:18:15.581Z,13.02
2018-03-23T01:20:41.815Z,14.00
2018-03-23T01:23:08.032Z,13.10
2018-03-23T01:25:34.201Z,12.85
2018-03-23T01:28:01.157Z,12.82
2018-03-23T01:30:28.095Z,13.35
2018-03-23T01:32:55.057Z,12.75
2018-03-23T01:35:21.270Z,13.55
2018-03-23T01:37:48.202Z,13.18
2018-03-23T01:40:15.124Z,13.13
2018-03-23T01:42:41.315Z,13.57
2018-03-23T01:45:07.532Z,11.88
2018-03-23T01:47:33.713Z,11.68
2018-03-23T01:49:59.883Z,12.07
2018-03-23T01:52:26.089Z,12.23
2018-03-23T01:54:53.051Z,11.30
2018-03-23T01:57:19.252Z,12.85
2018-03-23T01:59:45.489Z,10.80
2018-03-23T02:02:12.441Z,12.00
2018-03-23T02:04:38.613Z,11.55
2018-03-23T02:07:04.806Z,11.15
2018-03-23T02:09:30.982Z,11.00
2018-03-23T02:11:57.200Z,11.20
2018-03-23T02:14:23.392Z,12.35
2018-03-23T02:16:49.595Z,12.20
2018-03-23T02:19:16.585Z,9.95
2018-03-23T02:21:42.781Z,11.80
2018-03-23T02:24:09.786Z,11.40
2018-03-23T02:26:36.021Z,12.52
2018-03-23T02:29:02.217Z,12.00
2018-03-23T02:31:28.471Z,11.02
2018-03-23T02:33:54.676Z,11.12
2018-03-23T02:36:20.888Z,10.80
2018-03-23T02:38:47.054Z,11.43
2018-03-23T02:41:13.258Z,11.15
2018-03-23T02:43:39.480Z,11.45
2018-03-23T02:46:05.692Z,11.32
2018-03-23T02:48:31.865Z,12.05
2018-03-23T02:50:58.093Z,11.07
2018-03-23T02:53:24.279Z,11.48
2018-03-23T02:55:50.449Z,12.65
2018-03-23T02:58:16.665Z,12.18
2018-03-23T03:00:42.876Z,10.98
2018-03-23T03:03:09.096Z,12.57
2018-03-23T03:05:35.312Z,11.75
2018-03-23T03:08:01.509Z,13.30
2018-03-23T03:10:28.500Z,13.10
2018-03-23T03:12:54.729Z,11.55
2018-03-23T03:15:20.936Z,13.32
2018-03-23T03:17:47.115Z,12.27
2018-03-23T03:20:13.310Z,12.90
2018-03-23T03:22:39.569Z,11.73
2018-03-23T03:25:05.776Z,12.52
2018-03-23T03:27:31.927Z,13.20
2018-03-23T03:29:58.151Z,11.80
2018-03-23T03:32:24.376Z,12.25
2018-03-23T03:34:50.609Z,11.90
2018-03-23T03:37:16.817Z,12.43
2018-03-23T03:39:43.039Z,13.62
2018-03-23T03:42:09.278Z,13.90
2018-03-23T03:47:29.700Z,13.75
2018-03-23T03:49:55.879Z,12.55
2018-03-23T03:52:22.125Z,13.62
2018-03-23T03:54:48.365Z,13.70
2018-03-23T03:57:14.574Z,14.60
2018-03-23T03:59:40.795Z,13.25
2018-03-23T04:02:06.999Z,13.07
2018-03-23T04:04:33.218Z,11.68
2018-03-23T04:06:59.429Z,12.50
2018-03-23T04:09:26.449Z,12.80
2018-03-23T04:11:52.632Z,12.30
2018-03-23T04:14:18.838Z,13.65
2018-03-23T04:16:45.843Z,11.05
2018-03-23T04:19:12.070Z,12.15
2018-03-23T04:21:38.263Z,12.95
2018-03-23T04:24:04.449Z,12.25
2018-03-23T04:26:30.637Z,12.57
2018-03-23T04:28:56.831Z,13.55
2018-03-23T04:31:22.992Z,12.57
2018-03-23T04:33:49.200Z,13.25
2018-03-23T04:36:15.452Z,12.60
2018-03-23T04:38:41.655Z,13.15
2018-03-23T04:41:07.848Z,12.65
2018-03-23T04:43:34.801Z,12.93
2018-03-23T04:46:01.044Z,11.68
2018-03-23T04:48:27.274Z,12.15
2018-03-23T04:50:53.508Z,11.30
2018-03-23T04:53:19.717Z,12.00
2018-03-23T04:55:46.975Z,12.07
2018-03-23T04:58:13.208Z,10.45
2018-03-23T05:00:39.403Z,13.30
2018-03-23T05:03:06.367Z,13.20
2018-03-23T05:05:32.549Z,12.65
2018-03-23T05:07:58.787Z,12.13
2018-03-23T05:10:24.957Z,12.65
2018-03-23T05:18:40.879Z,11.80
2018-03-23T05:21:07.117Z,11.20
2018-03-23T05:23:33.336Z,13.70
2018-03-23T05:25:59.522Z,11.90
2018-03-23T05:28:25.699Z,12.00
2018-03-23T05:30:51.913Z,11.68
2018-03-23T05:33:18.089Z,11.25
2018-03-23T05:35:44.255Z,12.40
2018-03-23T05:38:21.674Z,11.48
2018-03-23T05:40:47.839Z,11.50
2018-03-23T05:43:14.054Z,12.43
2018-03-23T05:45:40.272Z,12.37
2018-03-23T05:48:06.495Z,11.85
2018-03-23T05:50:32.681Z,14.38
2018-03-23T05:52:59.636Z,11.90
2018-03-23T05:55:27.873Z,11.20
2018-03-23T05:57:57.952Z,11.02
2018-03-23T06:00:24.173Z,13.15
2018-03-23T06:02:50.383Z,12.48
2018-03-23T06:05:16.564Z,13.70
2018-03-23T06:07:42.744Z,13.07
2018-03-23T06:10:09.013Z,12.23
2018-03-23T06:12:35.156Z,12.95
2018-03-23T06:15:01.347Z,11.55
2018-03-23T06:17:27.532Z,11.30
2018-03-23T06:19:53.725Z,13.05
2018-03-23T06:22:20.733Z,11.63
2018-03-23T06:24:46.923Z,10.57
2018-03-23T06:27:13.125Z,10.40
2018-03-23T06:29:39.294Z,11.23
2018-03-23T06:32:05.458Z,10.65
2018-03-23T06:34:31.657Z,10.57
2018-03-23T06:36:57.848Z,10.90
2018-03-23T06:39:24.091Z,11.40
2018-03-23T06:41:50.286Z,10.35
2018-03-23T06:47:19.169Z,13.52
2018-03-23T06:49:45.352Z,12.13
2018-03-23T06:52:11.587Z,12.10
2018-03-23T06:54:37.785Z,13.38
2018-03-23T06:57:04.734Z,11.40
2018-03-23T06:59:31.687Z,11.88
2018-03-23T07:01:57.915Z,12.15
2018-03-23T07:04:28.648Z,12.10
2018-03-23T07:06:54.888Z,12.13
2018-03-23T07:09:21.106Z,10.48
2018-03-23T07:11:47.305Z,11.23
2018-03-23T07:14:13.539Z,10.98
2018-03-23T07:16:40.474Z,12.05
2018-03-23T07:19:07.508Z,11.60
2018-03-23T07:21:33.736Z,11.60
2018-03-23T07:23:59.937Z,11.05
2018-03-23T07:26:26.116Z,12.27
2018-03-23T07:28:53.035Z,11.80
2018-03-23T07:31:23.568Z,13.15
2018-03-23T07:33:49.749Z,11.98
2018-03-23T07:36:15.940Z,13.70
2018-03-23T07:38:42.896Z,13.30
2018-03-23T07:41:09.818Z,14.30
2018-03-23T07:43:36.058Z,13.30
2018-03-23T07:46:02.999Z,13.57
2018-03-23T07:48:29.934Z,13.90
2018-03-23T07:50:56.103Z,13.27
2018-03-23T07:53:22.325Z,12.98
2018-03-23T07:55:48.523Z,14.30
2018-03-23T07:58:15.485Z,13.90
2018-03-23T08:00:42.436Z,14.02
2018-03-23T08:03:08.591Z,13.25
2018-03-23T08:05:34.821Z,12.57
2018-03-23T08:08:01.010Z,15.02
2018-03-23T08:10:28.009Z,13.05
2018-03-23T08:12:54.212Z,13.82
2018-03-23T08:15:20.406Z,15.00
2018-03-23T08:17:47.373Z,14.63
2018-03-23T08:20:13.551Z,16.00
2018-03-23T08:22:39.787Z,16.70
2018-03-23T08:25:06.053Z,15.30
2018-03-23T08:27:32.245Z,13.48
2018-03-23T08:29:58.467Z,14.40
2018-03-23T08:32:24.690Z,13.52
2018-03-23T08:34:50.871Z,13.18
2018-03-23T08:37:17.085Z,14.55
2018-03-23T08:39:43.321Z,13.23
2018-03-23T08:42:09.514Z,14.48
2018-03-23T08:44:35.765Z,13.70
2018-03-23T08:47:01.941Z,13.77
2018-03-23T08:49:28.218Z,13.90
2018-03-23T08:51:54.407Z,13.93
2018-03-23T08:54:20.623Z,13.68
2018-03-23T08:56:46.860Z,13.30
2018-03-23T08:59:13.075Z,12.60
2018-03-23T09:01:53.750Z,13.35
2018-03-23T09:04:19.946Z,13.10
2018-03-23T09:06:46.138Z,12.43
2018-03-23T09:09:13.177Z,13.40
2018-03-23T09:11:40.176Z,12.45
2018-03-23T09:17:08.945Z,11.90
2018-03-23T09:19:35.168Z,12.60
2018-03-23T09:22:01.382Z,12.60
2018-03-23T09:24:27.593Z,13.07
2018-03-23T09:26:53.821Z,13.05
2018-03-23T09:29:20.007Z,12.25
2018-03-23T09:31:46.954Z,13.00
2018-03-23T09:34:13.164Z,12.52
2018-03-23T09:36:39.340Z,13.32
2018-03-23T09:39:05.559Z,12.85
2018-03-23T09:41:31.773Z,14.82
2018-03-23T09:43:57.955Z,13.50
2018-03-23T09:46:24.169Z,15.98
2018-03-23T09:48:50.406Z,13.85
2018-03-23T09:51:16.582Z,13.40
2018-03-23T09:53:42.782Z,15.27
2018-03-23T09:56:09.758Z,13.38
2018-03-23T09:58:36.009Z,13.30
2018-03-23T10:01:02.235Z,14.48
2018-03-23T10:03:28.456Z,14.63
2018-03-23T10:05:54.695Z,13.73
2018-03-23T10:08:20.958Z,13.93
2018-03-23T10:10:47.151Z,14.57
2018-03-23T10:13:13.373Z,14.23
2018-03-23T10:15:39.584Z,14.10
2018-03-23T10:18:05.820Z,14.00
2018-03-23T10:20:32.016Z,14.20
2018-03-23T10:22:58.925Z,12.65
2018-03-23T10:25:25.141Z,12.45
2018-03-23T10:27:51.347Z,13.52
2018-03-23T10:30:17.591Z,13.57
2018-03-23T10:32:43.865Z,12.57
2018-03-23T10:35:10.804Z,14.60
2018-03-23T10:37:37.763Z,14.05
2018-03-23T10:40:03.979Z,12.23
2018-03-23T10:42:30.221Z,13.40
2018-03-23T10:44:56.498Z,13.18
2018-03-23T10:47:22.784Z,12.15
2018-03-23T10:49:48.990Z,12.32
2018-03-23T10:52:16.000Z,11.57
2018-03-23T10:54:42.195Z,12.03
2018-03-23T10:57:08.403Z,13.37
2018-03-23T10:59:35.346Z,11.87
2018-03-23T11:02:08.351Z,12.37
2018-03-23T11:04:34.600Z,10.93
2018-03-23T11:07:00.801Z,10.43
2018-03-23T11:09:27.330Z,11.45
2018-03-23T11:11:53.544Z,10.85
2018-03-23T11:14:20.539Z,11.10
2018-03-23T11:16:46.781Z,10.13
2018-03-23T11:19:19.571Z,12.00
2018-03-23T11:21:45.763Z,10.57
2018-03-23T11:24:11.953Z,11.53
2018-03-23T11:26:38.897Z,10.73
2018-03-23T11:29:05.860Z,10.00
2018-03-23T11:31:32.800Z,9.53
2018-03-23T11:33:59.745Z,9.20
2018-03-23T11:36:25.933Z,9.00
2018-03-23T11:38:52.194Z,10.10
2018-03-23T11:41:18.427Z,9.50
2018-03-23T11:43:45.384Z,9.40
2018-03-23T11:46:11.654Z,9.60
2018-03-23T11:48:37.856Z,9.97
2018-03-23T11:51:04.067Z,8.23
2018-03-23T11:53:31.015Z,10.47
2018-03-23T11:55:57.231Z,9.93
2018-03-23T11:58:24.180Z,9.73
2018-03-23T12:00:51.160Z,8.67
2018-03-23T12:03:17.358Z,8.67
2018-03-23T12:05:43.605Z,9.80
2018-03-23T12:08:09.813Z,8.20
2018-03-23T12:10:36.022Z,7.70
2018-03-23T12:13:02.951Z,7.50
2018-03-23T12:15:29.153Z,7.40
2018-03-23T12:17:55.362Z,7.00
2018-03-23T12:20:21.563Z,7.20
2018-03-23T12:22:47.756Z,6.67
2018-03-23T12:25:13.927Z,7.07
2018-03-23T12:27:40.200Z,6.83
2018-03-23T12:30:06.390Z,6.83
2018-03-23T12:32:32.645Z,7.60
2018-03-23T12:34:58.888Z,7.50
2018-03-23T12:37:25.037Z,6.70
2018-03-23T12:39:51.970Z,6.70
2018-03-23T12:42:18.239Z,8.17
2018-03-23T12:44:44.454Z,6.10
2018-03-23T12:47:10.703Z,6.03
2018-03-23T12:49:36.923Z,7.40
2018-03-23T12:52:03.140Z,7.10
2018-03-23T12:54:29.359Z,6.90
2018-03-23T12:56:56.297Z,7.00
2018-03-23T12:59:23.232Z,8.13
2018-03-23T13:01:49.451Z,7.53
2018-03-23T13:04:16.410Z,7.20
2018-03-23T13:06:43.335Z,7.47
2018-03-23T13:09:09.646Z,6.50
2018-03-23T13:11:35.883Z,7.07
2018-03-23T13:14:02.059Z,6.00
2018-03-23T13:16:28.284Z,6.30
2018-03-23T13:18:54.542Z,6.57
2018-03-23T13:21:20.792Z,6.30
2018-03-23T13:26:41.897Z,6.97
2018-03-23T13:29:08.156Z,6.47
2018-03-23T13:31:35.103Z,7.80
2018-03-23T13:34:02.075Z,6.73
2018-03-23T13:36:28.297Z,6.77
2018-03-23T13:38:54.472Z,7.40
2018-03-23T13:41:20.713Z,6.90
2018-03-23T13:43:46.931Z,7.20
2018-03-23T13:46:13.176Z,6.93
2018-03-23T13:48:39.375Z,7.10
2018-03-23T13:51:05.685Z,6.10
2018-03-23T13:53:31.933Z,6.43
2018-03-23T13:55:58.120Z,6.10
2018-03-23T14:01:36.013Z,5.60
2018-03-23T14:04:02.210Z,6.10
2018-03-23T14:06:28.445Z,6.90
2018-03-23T14:08:54.741Z,5.40
2018-03-23T14:11:20.920Z,5.77
2018-03-23T14:13:47.142Z,6.57
2018-03-23T14:16:13.334Z,6.77
2018-03-23T14:18:39.559Z,6.10
2018-03-23T14:21:05.783Z,5.97
2018-03-23T14:23:31.993Z,5.63
2018-03-23T14:25:58.272Z,4.77
2018-03-23T14:28:25.273Z,4.70
2018-03-23T14:30:51.484Z,5.50
2018-03-23T14:33:17.716Z,6.20
2018-03-23T14:35:43.953Z,6.50
2018-03-23T14:38:11.261Z,6.33
2018-03-23T14:40:38.220Z,6.03
2018-03-23T14:43:04.443Z,5.73
2018-03-23T14:45:30.661Z,5.90
2018-03-23T14:47:57.642Z,6.10
2018-03-23T14:50:23.824Z,6.97
2018-03-23T14:52:50.003Z,5.80
2018-03-23T14:55:16.209Z,5.30
2018-03-23T14:57:42.449Z,5.87
2018-03-23T15:00:08.691Z,5.63
2018-03-23T15:02:34.864Z,5.90
2018-03-23T15:05:01.847Z,5.00
2018-03-23T15:07:28.072Z,5.00
2018-03-23T15:09:54.268Z,5.43
2018-03-23T15:12:21.217Z,4.37
2018-03-23T15:14:48.160Z,5.57
2018-03-23T15:17:15.115Z,5.67
2018-03-23T15:19:41.300Z,6.00
2018-03-23T15:22:07.499Z,4.60
2018-03-23T15:24:33.689Z,4.53
2018-03-23T15:26:59.920Z,5.00
2018-03-23T15:29:26.091Z,5.03
2018-03-23T15:31:52.281Z,5.53
2018-03-23T15:34:18.464Z,4.90
2018-03-23T15:36:44.630Z,5.20
2018-03-23T15:39:10.849Z,4.97
2018-03-23T15:41:37.772Z,4.90
2018-03-23T15:44:03.989Z,4.90
2018-03-23T15:46:30.178Z,5.93
2018-03-23T15:48:56.356Z,5.73
2018-03-23T15:51:22.572Z,5.13
2018-03-23T15:53:48.753Z,4.80
2018-03-23T15:56:15.014Z,4.87
2018-03-23T15:58:41.154Z,5.37
2018-03-23T16:01:07.641Z,4.90
2018-03-23T16:03:33.828Z,5.70
2018-03-23T16:06:00.780Z,6.70
2018-03-23T16:08:27.730Z,5.30
2018-03-23T16:10:55.830Z,4.93
2018-03-23T16:13:22.065Z,4.87
2018-03-23T16:15:48.275Z,4.73
2018-03-23T16:18:14.505Z,5.07
2018-03-23T16:20:40.715Z,5.00
2018-03-23T16:23:06.924Z,5.60
2018-03-23T16:25:33.101Z,7.00
2018-03-23T16:31:02.513Z,7.07
2018-03-23T16:33:28.741Z,8.07
2018-03-23T16:35:54.917Z,7.40
2018-03-23T16:38:21.117Z,6.07
2018-03-23T16:40:47.402Z,8.60
2018-03-23T16:46:07.264Z,7.30
2018-03-23T16:48:33.475Z,5.83
2018-03-23T16:50:59.694Z,4.80
2018-03-23T16:53:25.939Z,4.67
2018-03-23T16:55:52.162Z,5.07
2018-03-23T16:58:20.519Z,4.40
2018-03-23T17:00:46.764Z,4.03
2018-03-23T17:03:13.002Z,4.87
2018-03-23T17:05:42.323Z,4.90
2018-03-23T17:08:09.308Z,5.27
2018-03-23T17:10:35.548Z,4.33
2018-03-23T17:13:01.779Z,5.80
2018-03-23T17:15:28.010Z,4.30
2018-03-23T17:17:54.243Z,5.87
2018-03-23T17:20:20.436Z,5.00
2018-03-23T17:22:47.405Z,5.70
2018-03-23T17:25:26.025Z,5.23
2018-03-23T17:27:52.249Z,5.70
2018-03-23T17:30:18.479Z,5.57
2018-03-23T17:32:44.730Z,6.00
2018-03-23T17:35:10.960Z,5.83
2018-03-23T17:37:37.191Z,5.77
2018-03-23T17:40:03.463Z,5.80
2018-03-23T17:42:30.409Z,5.50
2018-03-23T17:44:57.327Z,5.90
2018-03-23T17:47:23.539Z,5.77
2018-03-23T17:49:49.752Z,5.97
2018-03-23T17:52:15.948Z,5.30
2018-03-23T17:54:42.150Z,6.43
2018-03-23T17:57:09.085Z,6.50
2018-03-23T17:59:35.272Z,5.00
2018-03-23T18:02:01.461Z,6.50
2018-03-23T18:04:28.408Z,5.10
2018-03-23T18:06:55.348Z,5.00
2018-03-23T18:09:22.283Z,4.70
2018-03-23T18:11:48.524Z,5.23
2018-03-23T18:14:14.757Z,4.63
2018-03-23T18:16:40.958Z,3.83
2018-03-23T18:19:07.210Z,3.40
2018-03-23T18:21:33.456Z,3.20
2018-03-23T18:23:59.613Z,4.10
2018-03-23T18:26:25.866Z,3.50
2018-03-23T18:28:52.100Z,4.00
2018-03-23T18:31:18.297Z,5.00
2018-03-23T18:33:44.511Z,4.67
2018-03-23T18:36:10.726Z,3.93
2018-03-23T18:38:36.969Z,4.63
2018-03-23T18:41:03.167Z,4.60
2018-03-23T18:43:29.388Z,5.50
2018-03-23T18:45:56.355Z,3.97
2018-03-23T18:48:22.552Z,3.90
2018-03-23T18:50:48.857Z,4.40
2018-03-23T18:53:15.088Z,4.50
2018-03-23T18:55:41.279Z,5.20
2018-03-23T18:58:07.494Z,4.27
2018-03-23T19:00:33.690Z,4.40
2018-03-23T19:03:00.642Z,4.57
2018-03-23T19:05:26.873Z,3.73
2018-03-23T19:07:53.131Z,3.00
2018-03-23T19:10:19.363Z,2.73
2018-03-23T19:12:45.578Z,4.67
2018-03-23T19:15:11.823Z,4.63
2018-03-23T19:17:38.133Z,7.40
2018-03-23T19:20:04.346Z,14.50
2018-03-23T19:22:31.619Z,13.73
2018-03-23T19:24:57.854Z,8.97
2018-03-23T19:27:24.040Z,9.20
2018-03-23T19:29:51.038Z,10.70
2018-03-23T19:32:17.224Z,11.53
2018-03-23T19:37:36.488Z,8.80
2018-03-23T19:40:02.754Z,8.20
2018-03-23T19:42:29.700Z,8.10
2018-03-23T19:45:20.046Z,9.00
2018-03-23T19:47:47.019Z,7.87
2018-03-23T19:50:13.206Z,8.20
2018-03-23T19:52:40.125Z,10.20
2018-03-23T19:55:06.375Z,9.90
2018-03-23T19:57:33.313Z,10.47
2018-03-23T19:59:59.541Z,9.77
2018-03-23T20:02:25.772Z,10.87
2018-03-23T20:07:45.369Z,10.20
2018-03-23T20:10:11.580Z,11.40
2018-03-23T20:12:39.621Z,10.73
2018-03-23T20:15:05.885Z,12.00
2018-03-23T20:17:38.932Z,12.80
2018-03-23T20:20:11.236Z,11.60
2018-03-23T20:22:44.701Z,10.57
2018-03-23T20:25:10.911Z,9.93
2018-03-23T20:27:43.366Z,8.13
2018-03-23T20:30:09.618Z,9.63
2018-03-23T20:32:35.915Z,10.10
2018-03-23T20:35:02.153Z,11.30
2018-03-23T20:37:28.369Z,9.43
2018-03-23T20:39:55.741Z,10.93
2018-03-23T20:42:21.982Z,9.30
2018-03-23T20:44:48.269Z,7.30
2018-03-23T20:47:14.592Z,7.13
2018-03-23T20:49:40.851Z,6.93
2018-03-23T20:52:10.511Z,6.60
2018-03-23T20:54:37.505Z,7.80
2018-03-23T20:57:03.772Z,7.28
2018-03-23T20:59:30.109Z,8.03
2018-03-23T21:01:56.373Z,8.05
2018-03-23T21:04:22.672Z,8.55
2018-03-23T21:06:48.864Z,8.25
2018-03-23T21:09:15.180Z,11.57
2018-03-23T21:11:41.501Z,13.05
2018-03-23T21:14:07.863Z,15.27
2018-03-23T21:16:34.154Z,13.40
2018-03-23T21:19:00.428Z,18.25
2018-03-23T21:21:26.731Z,18.05
2018-03-23T21:23:52.993Z,16.77
2018-03-23T21:26:19.499Z,16.60
2018-03-23T21:28:45.763Z,16.60
2018-03-23T21:31:15.801Z,14.33
2018-03-23T21:33:42.035Z,12.00
2018-03-23T21:36:09.098Z,9.68
2018-03-23T21:38:35.397Z,9.45
2018-03-23T21:41:01.672Z,9.30
2018-03-23T21:43:27.882Z,9.80
2018-03-23T21:45:54.136Z,11.38
2018-03-23T21:48:20.420Z,11.40
2018-03-23T21:50:46.649Z,9.00
2018-03-23T21:56:17.215Z,5.40
2018-03-23T21:58:44.213Z,5.03
2018-03-23T22:01:17.920Z,5.40
2018-03-23T22:03:44.149Z,4.87
2018-03-23T22:06:10.392Z,5.35
2018-03-23T22:08:36.594Z,7.93
2018-03-23T22:11:02.831Z,9.00
2018-03-23T22:16:22.714Z,11.43
2018-03-23T22:18:49.635Z,11.68
2018-03-23T22:21:15.836Z,9.90
2018-03-23T22:23:42.827Z,12.65
2018-03-23T22:26:09.027Z,13.73
2018-03-23T22:28:35.247Z,12.13
2018-03-23T22:31:02.167Z,7.70
2018-03-23T22:33:28.361Z,6.30
2018-03-23T22:35:54.577Z,6.37
2018-03-23T22:38:22.874Z,8.02
2018-03-23T22:40:49.065Z,9.25
2018-03-23T22:43:15.282Z,4.75
2018-03-23T22:45:42.257Z,5.07
2018-03-23T22:51:31.733Z,10.85
2018-03-23T22:53:58.928Z,13.55
2018-03-23T22:56:25.165Z,12.82
2018-03-23T22:58:51.380Z,11.12
2018-03-23T23:01:17.585Z,9.75
2018-03-23T23:03:43.816Z,8.05
2018-03-23T23:06:10.005Z,7.57
2018-03-23T23:08:41.325Z,7.28
2018-03-23T23:11:07.548Z,8.48
2018-03-23T23:13:35.788Z,8.07
2018-03-23T23:16:02.001Z,7.43
2018-03-23T23:18:28.222Z,7.03
2018-03-23T23:20:54.500Z,6.28
2018-03-23T23:23:20.699Z,6.53
2018-03-23T23:25:46.868Z,7.20
2018-03-23T23:28:13.117Z,7.18
2018-03-23T23:30:40.086Z,8.77
2018-03-23T23:33:06.394Z,10.00
2018-03-23T23:35:33.355Z,10.80
2018-03-23T23:37:59.565Z,9.10
2018-03-23T23:40:26.577Z,9.50
2018-03-23T23:42:52.817Z,8.68
2018-03-23T23:45:19.004Z,7.97
2018-03-23T23:47:45.209Z,10.82
2018-03-23T23:50:14.224Z,10.93
2018-03-23T23:52:40.413Z,9.95
2018-03-23T23:55:07.362Z,10.60
2018-03-23T23:57:34.356Z,10.98
